Portada
METAR-TAF:

METAR-TAF

Aeroports :

Midland, Michigan, Estats Units d'Amèrica

latitud: 43-39-46N, longitud: 084-15-41W, altitud: 194 m

Observació

L'informe es va fer fa 25 minuts, a les 07:36 UTC
Vent 5 kt del Oest/Sud-Oest
Temperatura 5°C
Humitat 87%
Pressió 1007 hPa
Visibilitat: 16.1 km
Cel cobert a una alçada de 1100 ft
plugim

METAR: KIKW 300736Z AUTO 24005KT 10SM -DZ OVC011 05/03 A2973 RMK AO2 T00480027

Hora: 04:01 (08:01 UTC)


TAF: manca

Observacions i pronòstics meteorològics de més de 4000 aeroports (METAR i TAF).

Les estacions disponibles són els punts grocs i vermells al mapa.

Posi el ratolí al punt desitjat per veure el nom de l'estació.

Feu clic per veure les observacions i els pronòstics meteorològics.

Per canviar el mapa: feu clic els botons verds amb una creu de color negre per apropar; al botó verd amb un guió per allunyar la imatge; o en les fletxes verdes per a mapes adjacents.


METAR-TAF: